createdAt,value
2023-03-22T00:01:25.546Z,100069.09
2023-03-22T00:03:55.230Z,100065.41
2023-03-22T00:06:25.128Z,100074.25
2023-03-22T00:08:55.148Z,100079.56
2023-03-22T00:11:27.131Z,100066.25
2023-03-22T00:13:56.792Z,100066.25
2023-03-22T00:16:26.772Z,100061.91
2023-03-22T00:18:56.408Z,100071.56
2023-03-22T00:21:26.008Z,100072.41
2023-03-22T00:23:55.563Z,100081.41
2023-03-22T00:26:25.218Z,100074.94
2023-03-22T00:28:54.869Z,100062.63
2023-03-22T00:31:24.437Z,100065.13
2023-03-22T00:33:54.099Z,100062.44
2023-03-22T00:36:23.784Z,100065.13
2023-03-22T00:38:53.688Z,100064.28
2023-03-22T00:41:24.471Z,100064.13
2023-03-22T00:43:54.191Z,100062.28
2023-03-22T00:46:23.906Z,100056.13
2023-03-22T00:48:53.530Z,100056.13
2023-03-22T00:51:23.200Z,100052.31
2023-03-22T00:53:53.818Z,100054.16
2023-03-22T00:56:24.537Z,100047.00
2023-03-22T00:58:54.093Z,100050.66
2023-03-22T01:01:23.704Z,100040.00
2023-03-22T01:03:53.375Z,100039.81
2023-03-22T01:06:23.019Z,100041.66
2023-03-22T01:08:52.630Z,100043.31
2023-03-22T01:11:22.272Z,100039.69
2023-03-22T01:13:52.107Z,100040.53
2023-03-22T01:16:21.895Z,100041.34
2023-03-22T01:18:51.453Z,100036.03
2023-03-22T01:21:21.088Z,100025.19
2023-03-22T01:23:50.804Z,100024.34
2023-03-22T01:26:20.396Z,100024.22
2023-03-22T01:28:49.975Z,100013.56
2023-03-22T01:31:19.580Z,100019.56
2023-03-22T01:33:49.173Z,100017.72
2023-03-22T01:36:18.769Z,100015.56
2023-03-22T01:38:48.349Z,100011.25
2023-03-22T01:41:18.933Z,100004.06
2023-03-22T01:44:08.031Z,100008.41
2023-03-22T01:46:38.229Z,100004.78
2023-03-22T01:49:08.293Z,99999.28
2023-03-22T01:51:37.943Z,100000.81
2023-03-22T01:54:12.199Z,100002.78
2023-03-22T01:56:41.976Z,100005.31
2023-03-22T01:59:13.108Z,99997.31
2023-03-22T02:01:42.761Z,99984.47
2023-03-22T02:04:22.691Z,99987.66
2023-03-22T02:06:55.837Z,99979.50
2023-03-22T02:09:25.718Z,99973.03
2023-03-22T02:12:21.279Z,99976.53
2023-03-22T02:14:50.813Z,99981.03
2023-03-22T02:17:32.538Z,99972.03
2023-03-22T02:20:17.213Z,99970.72
2023-03-22T02:22:51.557Z,99965.22
2023-03-22T02:25:39.246Z,99958.56
2023-03-22T02:28:24.021Z,99960.09
2023-03-22T02:31:04.846Z,99952.78
2023-03-22T02:33:41.662Z,99953.63
2023-03-22T02:36:21.330Z,99949.66
2023-03-22T02:39:14.841Z,99941.47
2023-03-22T02:42:02.424Z,99936.84
2023-03-22T02:44:49.148Z,99923.50
2023-03-22T02:47:24.911Z,99921.66
2023-03-22T02:50:12.232Z,99916.31
2023-03-22T02:52:45.716Z,99911.31
2023-03-22T02:55:22.916Z,99906.81
2023-03-22T02:58:15.021Z,99895.81
2023-03-22T03:00:45.197Z,99885.97
2023-03-22T03:03:19.719Z,99885.81
2023-03-22T03:05:57.397Z,99877.66
2023-03-22T03:08:27.055Z,99877.34
2023-03-22T03:10:57.062Z,99871.31
2023-03-22T03:13:26.807Z,99864.00
2023-03-22T03:16:00.419Z,99861.16
2023-03-22T03:18:42.206Z,99854.84
2023-03-22T03:21:36.414Z,99848.81
2023-03-22T03:24:17.878Z,99841.50
2023-03-22T03:26:59.486Z,99832.31
2023-03-22T03:29:42.925Z,99826.13
2023-03-22T03:32:27.179Z,99818.13
2023-03-22T03:35:09.242Z,99810.97
2023-03-22T03:37:43.866Z,99814.31
2023-03-22T03:40:19.525Z,99816.16
2023-03-22T03:42:53.595Z,99804.78
2023-03-22T03:45:23.723Z,99810.97
2023-03-22T03:47:58.552Z,99816.28
2023-03-22T03:50:28.476Z,99815.28
2023-03-22T03:52:58.382Z,99820.63
2023-03-22T03:55:28.003Z,99816.97
2023-03-22T03:57:57.658Z,99805.97
2023-03-22T04:00:27.294Z,99807.47
2023-03-22T04:02:57.232Z,99801.28
2023-03-22T04:05:26.778Z,99799.47
2023-03-22T04:07:56.365Z,99790.78
2023-03-22T04:10:26.043Z,99796.47
2023-03-22T04:12:55.661Z,99785.28
2023-03-22T04:15:25.861Z,99783.31
2023-03-22T04:17:58.574Z,99777.97
2023-03-22T04:20:28.657Z,99780.63
2023-03-22T04:22:59.597Z,99782.63
2023-03-22T04:25:31.691Z,99767.63
2023-03-22T04:28:02.081Z,99765.28
2023-03-22T04:30:32.324Z,99761.63
2023-03-22T04:33:02.854Z,99751.78
2023-03-22T04:35:32.451Z,99744.94
2023-03-22T04:38:02.800Z,99735.09
2023-03-22T04:40:36.920Z,99736.91
2023-03-22T04:43:06.409Z,99729.75
2023-03-22T04:45:36.550Z,99729.09
2023-03-22T04:48:06.252Z,99721.09
2023-03-22T04:50:36.492Z,99727.06
2023-03-22T04:53:06.100Z,99716.06
2023-03-22T04:55:35.698Z,99717.09
2023-03-22T04:58:05.334Z,99713.59
2023-03-22T05:00:34.986Z,99715.25
2023-03-22T05:03:05.629Z,99714.22
2023-03-22T05:05:35.180Z,99702.72
2023-03-22T05:08:04.702Z,99695.22
2023-03-22T05:10:34.321Z,99688.03
2023-03-22T05:13:03.918Z,99692.38
2023-03-22T05:15:34.020Z,99687.34
2023-03-22T05:18:03.736Z,99694.53
2023-03-22T05:20:34.113Z,99682.88
2023-03-22T05:23:04.181Z,99679.53
2023-03-22T05:25:33.862Z,99671.34
2023-03-22T05:28:03.607Z,99670.50
2023-03-22T05:30:34.021Z,99669.03
2023-03-22T05:33:05.576Z,99663.69
2023-03-22T05:35:36.204Z,99670.69
2023-03-22T05:38:06.364Z,99676.38
2023-03-22T05:40:36.045Z,99665.53
2023-03-22T05:43:05.612Z,99662.34
2023-03-22T05:45:35.192Z,99669.53
2023-03-22T05:48:05.315Z,99665.84
2023-03-22T05:50:35.224Z,99661.34
2023-03-22T05:53:05.595Z,99660.53
2023-03-22T05:55:35.223Z,99648.19
2023-03-22T05:58:06.610Z,99649.34
2023-03-22T06:00:37.489Z,99647.31
2023-03-22T06:03:07.345Z,99646.34
2023-03-22T06:05:38.335Z,99639.31
2023-03-22T06:08:07.943Z,99642.66
2023-03-22T06:10:37.759Z,99637.50
2023-03-22T06:13:07.577Z,99634.16
2023-03-22T06:15:37.317Z,99636.19
2023-03-22T06:18:06.878Z,99634.34
2023-03-22T06:20:36.944Z,99629.00
2023-03-22T06:23:06.824Z,99630.66
2023-03-22T06:25:36.415Z,99634.16
2023-03-22T06:28:08.496Z,99621.66
2023-03-22T06:30:38.765Z,99625.81
2023-03-22T06:33:08.654Z,99623.97
2023-03-22T06:35:38.408Z,99619.66
2023-03-22T06:38:08.060Z,99625.81
2023-03-22T06:40:37.807Z,99623.16
2023-03-22T06:43:07.626Z,99621.50
2023-03-22T06:45:37.531Z,99618.97
2023-03-22T06:48:07.574Z,99617.31
2023-03-22T06:50:41.241Z,99626.97
2023-03-22T06:53:12.145Z,99623.31
2023-03-22T06:55:42.184Z,99622.47
2023-03-22T06:58:11.938Z,99625.97
2023-03-22T07:00:42.107Z,99625.97
2023-03-22T07:03:12.011Z,99626.84
2023-03-22T07:05:41.733Z,99620.31
2023-03-22T07:08:11.417Z,99622.13
2023-03-22T07:10:41.226Z,99624.66
2023-03-22T07:13:11.127Z,99622.97
2023-03-22T07:15:40.696Z,99621.13
2023-03-22T07:18:10.347Z,99615.63
2023-03-22T07:20:42.301Z,99613.97
2023-03-22T07:23:14.720Z,99616.81
2023-03-22T07:25:44.724Z,99620.31
2023-03-22T07:28:14.392Z,99613.31
2023-03-22T07:30:44.096Z,99620.16
2023-03-22T07:33:13.713Z,99620.16
2023-03-22T07:35:43.489Z,99624.66
2023-03-22T07:38:13.279Z,99622.94
2023-03-22T07:40:42.852Z,99618.97
2023-03-22T07:43:14.665Z,99624.44
2023-03-22T07:45:44.497Z,99627.13
2023-03-22T07:48:14.240Z,99619.28
2023-03-22T07:50:44.418Z,99616.63
2023-03-22T07:53:14.153Z,99619.28
2023-03-22T07:55:46.914Z,99616.78
2023-03-22T07:58:16.597Z,99616.78
2023-03-22T08:00:46.171Z,99612.44
2023-03-22T08:03:15.863Z,99618.63
2023-03-22T08:05:45.815Z,99620.28
2023-03-22T08:08:15.426Z,99613.28
2023-03-22T08:10:45.185Z,99622.94
2023-03-22T08:13:14.745Z,99617.59
2023-03-22T08:15:44.847Z,99614.09
2023-03-22T08:18:14.641Z,99620.28
2023-03-22T08:20:46.838Z,99611.63
2023-03-22T08:23:17.779Z,99608.13
2023-03-22T08:25:47.582Z,99623.13
2023-03-22T08:28:17.721Z,99621.47
2023-03-22T08:30:48.409Z,99626.81
2023-03-22T08:33:18.147Z,99626.81
2023-03-22T08:35:47.911Z,99622.31
2023-03-22T08:38:18.388Z,99620.63
2023-03-22T08:40:50.841Z,99625.78
2023-03-22T08:43:20.451Z,99622.13
2023-03-22T08:45:50.281Z,99620.47
2023-03-22T08:48:20.498Z,99618.81
2023-03-22T08:50:50.172Z,99617.78
2023-03-22T08:53:19.743Z,99618.47
2023-03-22T08:55:49.990Z,99620.47
2023-03-22T08:58:21.533Z,99618.81
2023-03-22T09:00:51.150Z,99613.63
2023-03-22T09:03:20.794Z,99621.81
2023-03-22T09:05:50.374Z,99614.81
2023-03-22T09:08:20.187Z,99611.31
2023-03-22T09:10:52.874Z,99620.31
2023-03-22T09:13:22.632Z,99630.97
2023-03-22T09:15:53.736Z,99630.97
2023-03-22T09:18:24.015Z,99627.66
2023-03-22T09:20:54.301Z,99632.31
2023-03-22T09:23:23.987Z,99626.16
2023-03-22T09:25:53.645Z,99630.66
2023-03-22T09:28:23.388Z,99628.19
2023-03-22T09:30:53.128Z,99626.34
2023-03-22T09:33:22.783Z,99628.31
2023-03-22T09:35:52.522Z,99629.16
2023-03-22T09:38:23.142Z,99639.00
2023-03-22T09:41:04.322Z,99625.84
2023-03-22T09:43:58.615Z,99631.19
2023-03-22T09:46:39.435Z,99627.69
2023-03-22T09:49:14.937Z,99620.00
2023-03-22T09:51:51.072Z,99619.81
2023-03-22T09:54:26.503Z,99611.16
2023-03-22T09:57:13.267Z,99607.50
2023-03-22T09:59:55.910Z,99609.31
2023-03-22T10:03:03.601Z,99612.00
2023-03-22T10:05:39.310Z,99613.84
2023-03-22T10:08:18.013Z,99604.97
2023-03-22T10:10:47.602Z,99604.16
2023-03-22T10:13:24.136Z,99608.66
2023-03-22T10:15:57.896Z,99617.50
2023-03-22T10:18:48.721Z,99608.66
2023-03-22T10:21:18.934Z,99618.50
2023-03-22T10:23:54.428Z,99630.00
2023-03-22T10:26:43.812Z,99626.31
2023-03-22T10:29:35.983Z,99626.50
2023-03-22T10:33:09.870Z,99624.84
2023-03-22T10:35:39.794Z,99621.34
2023-03-22T10:38:11.218Z,99629.34
2023-03-22T10:40:42.363Z,99624.00
2023-03-22T10:43:25.730Z,99620.50
2023-03-22T10:45:55.743Z,99632.84
2023-03-22T10:48:25.413Z,99631.16
2023-03-22T10:50:55.025Z,99631.16
2023-03-22T10:53:40.073Z,99636.50
2023-03-22T10:56:15.158Z,99635.66
2023-03-22T10:58:44.925Z,99634.84
2023-03-22T11:01:16.346Z,99627.66
2023-03-22T11:03:53.223Z,99632.16
2023-03-22T11:06:31.541Z,99631.34
2023-03-22T11:09:02.909Z,99639.34
2023-03-22T11:12:00.223Z,99635.84
2023-03-22T11:14:39.336Z,99629.50
2023-03-22T11:17:09.573Z,99640.19
2023-03-22T11:19:43.554Z,99643.03
2023-03-22T11:22:31.526Z,99647.34
2023-03-22T11:25:01.338Z,99642.00
2023-03-22T11:27:32.748Z,99655.34
2023-03-22T11:30:31.830Z,99657.84
2023-03-22T11:33:10.629Z,99654.53
2023-03-22T11:35:41.233Z,99651.84
2023-03-22T11:38:14.743Z,99654.53
2023-03-22T11:40:44.647Z,99654.53
2023-03-22T11:43:27.056Z,99657.19
2023-03-22T11:45:58.819Z,99655.34
2023-03-22T11:48:30.460Z,99662.53
2023-03-22T11:51:14.768Z,99653.69
2023-03-22T11:53:49.555Z,99656.38
2023-03-22T11:56:20.782Z,99658.03
2023-03-22T11:59:08.609Z,99663.53
2023-03-22T12:02:09.362Z,99665.38
2023-03-22T12:04:40.375Z,99661.84
2023-03-22T12:07:18.397Z,99657.38
2023-03-22T12:10:19.145Z,99659.19
2023-03-22T12:13:00.646Z,99665.53
2023-03-22T12:15:37.893Z,99656.69
2023-03-22T12:18:21.582Z,99659.38
2023-03-22T12:21:00.750Z,99653.19
2023-03-22T12:23:36.479Z,99653.19
2023-03-22T12:26:14.709Z,99648.88
2023-03-22T12:28:52.961Z,99661.19
2023-03-22T12:31:38.130Z,99657.53
2023-03-22T12:34:10.255Z,99654.03
2023-03-22T12:36:52.508Z,99652.19
2023-03-22T12:39:33.159Z,99661.03
2023-03-22T12:42:11.769Z,99654.84
2023-03-22T12:44:55.554Z,99667.19
2023-03-22T12:47:30.500Z,99671.53
2023-03-22T12:50:10.416Z,99665.38
2023-03-22T12:52:45.675Z,99668.06
2023-03-22T12:55:41.876Z,99673.38
2023-03-22T12:58:12.272Z,99669.03
2023-03-22T13:00:47.731Z,99677.03
2023-03-22T13:03:20.572Z,99671.69
2023-03-22T13:05:51.835Z,99671.69
2023-03-22T13:08:23.103Z,99679.88
2023-03-22T13:11:05.956Z,99683.19
2023-03-22T13:13:42.687Z,99678.03
2023-03-22T13:16:15.087Z,99680.53
2023-03-22T13:18:47.808Z,99678.88
2023-03-22T13:21:22.791Z,99670.03
2023-03-22T13:24:02.442Z,99679.69
2023-03-22T13:26:49.734Z,99667.38
2023-03-22T13:29:20.088Z,99669.22
2023-03-22T13:32:00.237Z,99663.88
2023-03-22T13:34:48.854Z,99669.84
2023-03-22T13:37:36.608Z,99671.69
2023-03-22T13:40:39.633Z,99668.38
2023-03-22T13:43:14.404Z,99664.69
2023-03-22T13:46:07.132Z,99664.69
2023-03-22T13:48:54.987Z,99667.56
2023-03-22T13:51:24.712Z,99660.38
2023-03-22T13:54:09.384Z,99654.22
2023-03-22T13:56:44.804Z,99655.03
2023-03-22T13:59:21.186Z,99656.00
2023-03-22T14:02:13.049Z,99659.53
2023-03-22T14:04:49.314Z,99653.34
2023-03-22T14:07:42.327Z,99663.88
2023-03-22T14:10:16.303Z,99657.72
2023-03-22T14:12:52.071Z,99646.22
2023-03-22T14:15:30.534Z,99652.38
2023-03-22T14:18:06.684Z,99642.53
2023-03-22T14:20:40.119Z,99639.84
